sensor_id;sensor_type;location;lat;lon;timestamp;P1;durP1;ratioP1;P2;durP2;ratioP2
81374;SDS011;70828;51.158;4.998;2023-07-20T00:01:46;6.15;;;2.63;;
81374;SDS011;70828;51.158;4.998;2023-07-20T00:04:13;7.20;;;2.80;;
81374;SDS011;70828;51.158;4.998;2023-07-20T00:06:39;6.05;;;2.50;;
81374;SDS011;70828;51.158;4.998;2023-07-20T00:09:06;3.58;;;2.17;;
81374;SDS011;70828;51.158;4.998;2023-07-20T00:11:35;6.88;;;2.63;;
81374;SDS011;70828;51.158;4.998;2023-07-20T00:14:02;9.43;;;2.85;;
81374;SDS011;70828;51.158;4.998;2023-07-20T00:16:30;6.40;;;2.47;;
81374;SDS011;70828;51.158;4.998;2023-07-20T00:18:57;5.00;;;2.67;;
81374;SDS011;70828;51.158;4.998;2023-07-20T00:21:23;7.70;;;3.22;;
81374;SDS011;70828;51.158;4.998;2023-07-20T00:23:50;6.57;;;2.30;;
81374;SDS011;70828;51.158;4.998;2023-07-20T00:26:17;4.20;;;2.78;;
81374;SDS011;70828;51.158;4.998;2023-07-20T00:28:43;7.07;;;2.53;;
81374;SDS011;70828;51.158;4.998;2023-07-20T00:31:10;3.88;;;2.53;;
81374;SDS011;70828;51.158;4.998;2023-07-20T00:33:38;4.53;;;2.35;;
81374;SDS011;70828;51.158;4.998;2023-07-20T00:36:04;4.45;;;2.38;;
81374;SDS011;70828;51.158;4.998;2023-07-20T00:38:31;4.85;;;2.60;;
81374;SDS011;70828;51.158;4.998;2023-07-20T00:40:58;7.80;;;3.22;;
81374;SDS011;70828;51.158;4.998;2023-07-20T00:43:24;7.32;;;2.88;;
81374;SDS011;70828;51.158;4.998;2023-07-20T00:45:51;5.03;;;2.60;;
81374;SDS011;70828;51.158;4.998;2023-07-20T00:48:17;7.25;;;2.97;;
81374;SDS011;70828;51.158;4.998;2023-07-20T00:50:46;7.43;;;2.75;;
81374;SDS011;70828;51.158;4.998;2023-07-20T00:53:13;8.35;;;2.88;;
81374;SDS011;70828;51.158;4.998;2023-07-20T00:55:40;7.85;;;3.13;;
81374;SDS011;70828;51.158;4.998;2023-07-20T00:58:06;6.05;;;3.13;;
81374;SDS011;70828;51.158;4.998;2023-07-20T01:00:34;7.07;;;2.72;;
81374;SDS011;70828;51.158;4.998;2023-07-20T01:03:00;6.25;;;2.47;;
81374;SDS011;70828;51.158;4.998;2023-07-20T01:05:30;6.80;;;3.40;;
81374;SDS011;70828;51.158;4.998;2023-07-20T01:08:05;5.00;;;2.83;;
81374;SDS011;70828;51.158;4.998;2023-07-20T01:10:36;7.90;;;2.65;;
81374;SDS011;70828;51.158;4.998;2023-07-20T01:13:06;3.92;;;2.42;;
81374;SDS011;70828;51.158;4.998;2023-07-20T01:15:33;6.13;;;2.75;;
81374;SDS011;70828;51.158;4.998;2023-07-20T01:18:00;7.03;;;3.92;;
81374;SDS011;70828;51.158;4.998;2023-07-20T01:20:29;4.72;;;2.53;;
81374;SDS011;70828;51.158;4.998;2023-07-20T01:26:11;6.80;;;2.72;;
81374;SDS011;70828;51.158;4.998;2023-07-20T01:29:01;11.40;;;3.35;;
81374;SDS011;70828;51.158;4.998;2023-07-20T01:31:45;5.65;;;2.80;;
81374;SDS011;70828;51.158;4.998;2023-07-20T01:34:14;7.13;;;2.83;;
81374;SDS011;70828;51.158;4.998;2023-07-20T01:36:44;7.35;;;3.55;;
81374;SDS011;70828;51.158;4.998;2023-07-20T01:39:10;6.30;;;2.63;;
81374;SDS011;70828;51.158;4.998;2023-07-20T01:41:37;7.43;;;2.92;;
81374;SDS011;70828;51.158;4.998;2023-07-20T01:44:04;10.23;;;2.88;;
81374;SDS011;70828;51.158;4.998;2023-07-20T01:46:31;8.65;;;2.75;;
81374;SDS011;70828;51.158;4.998;2023-07-20T01:48:59;6.25;;;3.10;;
81374;SDS011;70828;51.158;4.998;2023-07-20T01:51:26;5.90;;;3.28;;
81374;SDS011;70828;51.158;4.998;2023-07-20T01:53:52;7.97;;;4.05;;
81374;SDS011;70828;51.158;4.998;2023-07-20T01:56:19;7.68;;;3.08;;
81374;SDS011;70828;51.158;4.998;2023-07-20T01:58:46;5.30;;;3.40;;
81374;SDS011;70828;51.158;4.998;2023-07-20T02:01:13;10.45;;;3.58;;
81374;SDS011;70828;51.158;4.998;2023-07-20T02:03:39;8.52;;;3.38;;
81374;SDS011;70828;51.158;4.998;2023-07-20T02:06:07;11.55;;;4.22;;
81374;SDS011;70828;51.158;4.998;2023-07-20T02:08:34;11.80;;;4.47;;
81374;SDS011;70828;51.158;4.998;2023-07-20T02:11:00;7.82;;;3.53;;
81374;SDS011;70828;51.158;4.998;2023-07-20T02:13:27;8.55;;;3.88;;
81374;SDS011;70828;51.158;4.998;2023-07-20T02:15:54;9.20;;;3.65;;
81374;SDS011;70828;51.158;4.998;2023-07-20T02:18:20;8.13;;;3.50;;
81374;SDS011;70828;51.158;4.998;2023-07-20T02:20:47;8.57;;;3.90;;
81374;SDS011;70828;51.158;4.998;2023-07-20T02:23:15;8.63;;;4.07;;
81374;SDS011;70828;51.158;4.998;2023-07-20T02:25:41;4.97;;;3.08;;
81374;SDS011;70828;51.158;4.998;2023-07-20T02:28:10;12.90;;;4.03;;
81374;SDS011;70828;51.158;4.998;2023-07-20T02:30:39;9.05;;;3.45;;
81374;SDS011;70828;51.158;4.998;2023-07-20T02:33:06;7.95;;;3.70;;
81374;SDS011;70828;51.158;4.998;2023-07-20T02:35:33;5.40;;;3.47;;
81374;SDS011;70828;51.158;4.998;2023-07-20T02:38:00;8.57;;;3.97;;
81374;SDS011;70828;51.158;4.998;2023-07-20T02:40:28;10.15;;;4.50;;
81374;SDS011;70828;51.158;4.998;2023-07-20T02:42:54;7.55;;;4.93;;
81374;SDS011;70828;51.158;4.998;2023-07-20T02:45:21;8.25;;;4.30;;
81374;SDS011;70828;51.158;4.998;2023-07-20T02:47:47;11.73;;;4.40;;
81374;SDS011;70828;51.158;4.998;2023-07-20T02:50:14;12.15;;;4.57;;
81374;SDS011;70828;51.158;4.998;2023-07-20T02:52:41;8.20;;;3.92;;
81374;SDS011;70828;51.158;4.998;2023-07-20T02:55:07;10.93;;;4.93;;
81374;SDS011;70828;51.158;4.998;2023-07-20T02:57:36;12.20;;;4.72;;
81374;SDS011;70828;51.158;4.998;2023-07-20T03:00:02;10.82;;;5.18;;
81374;SDS011;70828;51.158;4.998;2023-07-20T03:02:30;12.45;;;4.35;;
81374;SDS011;70828;51.158;4.998;2023-07-20T03:04:57;11.90;;;5.75;;
81374;SDS011;70828;51.158;4.998;2023-07-20T03:07:26;10.23;;;5.15;;
81374;SDS011;70828;51.158;4.998;2023-07-20T03:09:53;11.85;;;5.60;;
81374;SDS011;70828;51.158;4.998;2023-07-20T03:12:20;12.45;;;6.03;;
81374;SDS011;70828;51.158;4.998;2023-07-20T03:14:48;15.57;;;5.85;;
81374;SDS011;70828;51.158;4.998;2023-07-20T03:17:15;11.85;;;5.55;;
81374;SDS011;70828;51.158;4.998;2023-07-20T03:19:41;12.50;;;5.80;;
81374;SDS011;70828;51.158;4.998;2023-07-20T03:22:08;11.35;;;5.63;;
81374;SDS011;70828;51.158;4.998;2023-07-20T03:24:34;11.98;;;6.35;;
81374;SDS011;70828;51.158;4.998;2023-07-20T03:27:01;13.13;;;6.38;;
81374;SDS011;70828;51.158;4.998;2023-07-20T03:29:27;9.38;;;5.95;;
81374;SDS011;70828;51.158;4.998;2023-07-20T03:31:58;18.58;;;7.30;;
81374;SDS011;70828;51.158;4.998;2023-07-20T03:34:25;13.65;;;7.32;;
81374;SDS011;70828;51.158;4.998;2023-07-20T03:36:51;14.02;;;6.38;;
81374;SDS011;70828;51.158;4.998;2023-07-20T03:39:18;15.52;;;6.85;;
81374;SDS011;70828;51.158;4.998;2023-07-20T03:41:44;16.17;;;6.60;;
81374;SDS011;70828;51.158;4.998;2023-07-20T03:44:11;14.45;;;6.95;;
81374;SDS011;70828;51.158;4.998;2023-07-20T03:46:38;13.45;;;6.40;;
81374;SDS011;70828;51.158;4.998;2023-07-20T03:49:06;13.57;;;7.07;;
81374;SDS011;70828;51.158;4.998;2023-07-20T03:51:33;13.18;;;6.50;;
81374;SDS011;70828;51.158;4.998;2023-07-20T03:54:00;15.23;;;7.63;;
81374;SDS011;70828;51.158;4.998;2023-07-20T03:56:27;14.48;;;7.43;;
81374;SDS011;70828;51.158;4.998;2023-07-20T03:58:54;11.90;;;6.82;;
81374;SDS011;70828;51.158;4.998;2023-07-20T04:01:20;17.42;;;7.70;;
81374;SDS011;70828;51.158;4.998;2023-07-20T04:03:47;12.57;;;6.80;;
81374;SDS011;70828;51.158;4.998;2023-07-20T04:06:15;15.20;;;7.35;;
81374;SDS011;70828;51.158;4.998;2023-07-20T04:08:42;15.85;;;7.82;;
81374;SDS011;70828;51.158;4.998;2023-07-20T04:11:09;15.38;;;8.13;;
81374;SDS011;70828;51.158;4.998;2023-07-20T04:13:35;19.00;;;8.23;;
81374;SDS011;70828;51.158;4.998;2023-07-20T04:16:02;15.93;;;7.80;;
81374;SDS011;70828;51.158;4.998;2023-07-20T04:18:29;16.33;;;8.25;;
81374;SDS011;70828;51.158;4.998;2023-07-20T04:20:55;16.67;;;8.85;;
81374;SDS011;70828;51.158;4.998;2023-07-20T04:23:23;14.00;;;6.97;;
81374;SDS011;70828;51.158;4.998;2023-07-20T04:25:50;12.70;;;7.57;;
81374;SDS011;70828;51.158;4.998;2023-07-20T04:28:17;14.75;;;8.30;;
81374;SDS011;70828;51.158;4.998;2023-07-20T04:30:43;18.00;;;7.65;;
81374;SDS011;70828;51.158;4.998;2023-07-20T04:33:10;15.88;;;8.52;;
81374;SDS011;70828;51.158;4.998;2023-07-20T04:35:49;15.05;;;8.57;;
81374;SDS011;70828;51.158;4.998;2023-07-20T04:38:17;15.40;;;8.45;;
81374;SDS011;70828;51.158;4.998;2023-07-20T04:40:46;12.13;;;8.10;;
81374;SDS011;70828;51.158;4.998;2023-07-20T04:43:13;21.50;;;9.98;;
81374;SDS011;70828;51.158;4.998;2023-07-20T04:45:40;19.65;;;8.77;;
81374;SDS011;70828;51.158;4.998;2023-07-20T04:48:08;14.05;;;9.10;;
81374;SDS011;70828;51.158;4.998;2023-07-20T04:50:36;16.67;;;7.65;;
81374;SDS011;70828;51.158;4.998;2023-07-20T04:53:03;16.33;;;9.38;;
81374;SDS011;70828;51.158;4.998;2023-07-20T04:55:30;16.35;;;9.43;;
81374;SDS011;70828;51.158;4.998;2023-07-20T04:58:00;16.48;;;9.40;;
81374;SDS011;70828;51.158;4.998;2023-07-20T05:00:26;19.30;;;9.63;;
81374;SDS011;70828;51.158;4.998;2023-07-20T05:02:53;13.27;;;8.65;;
81374;SDS011;70828;51.158;4.998;2023-07-20T05:05:19;16.35;;;9.15;;
81374;SDS011;70828;51.158;4.998;2023-07-20T05:07:46;17.02;;;9.93;;
81374;SDS011;70828;51.158;4.998;2023-07-20T05:10:13;16.33;;;9.25;;
81374;SDS011;70828;51.158;4.998;2023-07-20T05:12:39;15.55;;;9.73;;
81374;SDS011;70828;51.158;4.998;2023-07-20T05:15:08;14.40;;;9.82;;
81374;SDS011;70828;51.158;4.998;2023-07-20T05:17:35;20.88;;;9.80;;
81374;SDS011;70828;51.158;4.998;2023-07-20T05:20:01;15.82;;;10.25;;
81374;SDS011;70828;51.158;4.998;2023-07-20T05:22:29;17.70;;;9.73;;
81374;SDS011;70828;51.158;4.998;2023-07-20T05:24:56;16.70;;;10.45;;
81374;SDS011;70828;51.158;4.998;2023-07-20T05:27:23;15.65;;;8.90;;
81374;SDS011;70828;51.158;4.998;2023-07-20T05:29:49;19.83;;;10.73;;
81374;SDS011;70828;51.158;4.998;2023-07-20T05:32:18;20.10;;;11.27;;
81374;SDS011;70828;51.158;4.998;2023-07-20T05:34:44;18.77;;;9.75;;
81374;SDS011;70828;51.158;4.998;2023-07-20T05:37:11;18.10;;;9.70;;
81374;SDS011;70828;51.158;4.998;2023-07-20T05:39:37;18.10;;;10.00;;
81374;SDS011;70828;51.158;4.998;2023-07-20T05:42:04;15.27;;;9.43;;
81374;SDS011;70828;51.158;4.998;2023-07-20T05:44:31;15.55;;;9.43;;
81374;SDS011;70828;51.158;4.998;2023-07-20T05:46:58;12.13;;;8.77;;
81374;SDS011;70828;51.158;4.998;2023-07-20T05:49:26;13.40;;;8.07;;
81374;SDS011;70828;51.158;4.998;2023-07-20T05:51:54;18.08;;;9.10;;
81374;SDS011;70828;51.158;4.998;2023-07-20T05:54:20;14.57;;;9.27;;
81374;SDS011;70828;51.158;4.998;2023-07-20T05:56:47;16.92;;;8.45;;
81374;SDS011;70828;51.158;4.998;2023-07-20T05:59:14;17.05;;;11.10;;
81374;SDS011;70828;51.158;4.998;2023-07-20T06:01:41;14.70;;;8.85;;
81374;SDS011;70828;51.158;4.998;2023-07-20T06:04:08;15.20;;;9.35;;
81374;SDS011;70828;51.158;4.998;2023-07-20T06:06:36;14.80;;;8.82;;
81374;SDS011;70828;51.158;4.998;2023-07-20T06:09:02;11.93;;;7.20;;
81374;SDS011;70828;51.158;4.998;2023-07-20T06:11:30;14.70;;;8.25;;
81374;SDS011;70828;51.158;4.998;2023-07-20T06:13:57;12.38;;;6.70;;
81374;SDS011;70828;51.158;4.998;2023-07-20T06:16:23;15.10;;;7.45;;
81374;SDS011;70828;51.158;4.998;2023-07-20T06:18:50;14.40;;;6.90;;
81374;SDS011;70828;51.158;4.998;2023-07-20T06:21:17;11.65;;;7.63;;
81374;SDS011;70828;51.158;4.998;2023-07-20T06:23:45;11.30;;;7.47;;
81374;SDS011;70828;51.158;4.998;2023-07-20T06:26:11;13.45;;;7.72;;
81374;SDS011;70828;51.158;4.998;2023-07-20T06:28:38;9.63;;;6.55;;
81374;SDS011;70828;51.158;4.998;2023-07-20T06:31:05;11.27;;;6.72;;
81374;SDS011;70828;51.158;4.998;2023-07-20T06:33:31;10.65;;;6.90;;
81374;SDS011;70828;51.158;4.998;2023-07-20T06:35:59;9.30;;;6.90;;
81374;SDS011;70828;51.158;4.998;2023-07-20T06:38:26;13.20;;;6.80;;
81374;SDS011;70828;51.158;4.998;2023-07-20T06:40:55;10.18;;;7.38;;
81374;SDS011;70828;51.158;4.998;2023-07-20T06:43:22;9.40;;;6.47;;
81374;SDS011;70828;51.158;4.998;2023-07-20T06:45:51;9.40;;;5.78;;
81374;SDS011;70828;51.158;4.998;2023-07-20T06:50:45;5.57;;;4.18;;
81374;SDS011;70828;51.158;4.998;2023-07-20T06:53:12;6.32;;;3.40;;
81374;SDS011;70828;51.158;4.998;2023-07-20T06:55:38;4.80;;;3.38;;
81374;SDS011;70828;51.158;4.998;2023-07-20T06:58:07;4.97;;;3.72;;
81374;SDS011;70828;51.158;4.998;2023-07-20T07:00:33;5.75;;;3.28;;
81374;SDS011;70828;51.158;4.998;2023-07-20T07:03:00;5.55;;;3.88;;
81374;SDS011;70828;51.158;4.998;2023-07-20T07:05:27;6.10;;;4.35;;
81374;SDS011;70828;51.158;4.998;2023-07-20T07:07:54;6.18;;;4.30;;
81374;SDS011;70828;51.158;4.998;2023-07-20T07:10:21;6.75;;;4.03;;
81374;SDS011;70828;51.158;4.998;2023-07-20T07:12:47;3.85;;;2.90;;
81374;SDS011;70828;51.158;4.998;2023-07-20T07:15:15;4.28;;;2.60;;
81374;SDS011;70828;51.158;4.998;2023-07-20T07:17:42;3.08;;;2.75;;
81374;SDS011;70828;51.158;4.998;2023-07-20T07:20:08;4.55;;;2.70;;
81374;SDS011;70828;51.158;4.998;2023-07-20T07:22:35;4.70;;;2.70;;
81374;SDS011;70828;51.158;4.998;2023-07-20T07:25:02;5.13;;;3.15;;
81374;SDS011;70828;51.158;4.998;2023-07-20T07:27:29;3.45;;;2.80;;
81374;SDS011;70828;51.158;4.998;2023-07-20T07:29:56;3.42;;;2.55;;
81374;SDS011;70828;51.158;4.998;2023-07-20T07:32:24;4.57;;;2.60;;
81374;SDS011;70828;51.158;4.998;2023-07-20T07:34:50;2.28;;;2.05;;
81374;SDS011;70828;51.158;4.998;2023-07-20T07:37:17;2.53;;;1.58;;
81374;SDS011;70828;51.158;4.998;2023-07-20T07:39:44;2.55;;;1.98;;
81374;SDS011;70828;51.158;4.998;2023-07-20T07:42:11;2.10;;;1.90;;
81374;SDS011;70828;51.158;4.998;2023-07-20T07:44:38;2.22;;;1.60;;
81374;SDS011;70828;51.158;4.998;2023-07-20T07:47:05;1.98;;;1.20;;
81374;SDS011;70828;51.158;4.998;2023-07-20T07:49:33;1.20;;;1.08;;
81374;SDS011;70828;51.158;4.998;2023-07-20T07:52:00;2.88;;;1.13;;
81374;SDS011;70828;51.158;4.998;2023-07-20T07:54:27;2.60;;;1.33;;
81374;SDS011;70828;51.158;4.998;2023-07-20T07:56:54;1.30;;;0.90;;
81374;SDS011;70828;51.158;4.998;2023-07-20T07:59:21;1.63;;;0.98;;
81374;SDS011;70828;51.158;4.998;2023-07-20T08:01:47;1.83;;;0.80;;
81374;SDS011;70828;51.158;4.998;2023-07-20T08:04:14;1.27;;;0.98;;
81374;SDS011;70828;51.158;4.998;2023-07-20T08:06:42;1.52;;;1.15;;
81374;SDS011;70828;51.158;4.998;2023-07-20T08:09:08;1.45;;;0.82;;
81374;SDS011;70828;51.158;4.998;2023-07-20T08:11:35;1.77;;;1.38;;
81374;SDS011;70828;51.158;4.998;2023-07-20T08:14:01;1.65;;;1.30;;
81374;SDS011;70828;51.158;4.998;2023-07-20T08:16:28;1.60;;;1.17;;
81374;SDS011;70828;51.158;4.998;2023-07-20T08:18:55;2.72;;;1.60;;
81374;SDS011;70828;51.158;4.998;2023-07-20T08:21:21;2.65;;;1.40;;
81374;SDS011;70828;51.158;4.998;2023-07-20T08:23:49;1.60;;;1.50;;
81374;SDS011;70828;51.158;4.998;2023-07-20T08:26:16;2.58;;;1.50;;
81374;SDS011;70828;51.158;4.998;2023-07-20T08:28:43;1.98;;;1.52;;
81374;SDS011;70828;51.158;4.998;2023-07-20T08:31:10;1.20;;;1.00;;
81374;SDS011;70828;51.158;4.998;2023-07-20T08:33:37;2.60;;;0.95;;
81374;SDS011;70828;51.158;4.998;2023-07-20T08:36:03;1.38;;;1.15;;
81374;SDS011;70828;51.158;4.998;2023-07-20T08:38:30;2.15;;;1.60;;
81374;SDS011;70828;51.158;4.998;2023-07-20T08:40:58;3.85;;;1.73;;
81374;SDS011;70828;51.158;4.998;2023-07-20T08:43:26;1.63;;;1.35;;
81374;SDS011;70828;51.158;4.998;2023-07-20T08:45:54;2.40;;;1.27;;
81374;SDS011;70828;51.158;4.998;2023-07-20T08:48:21;1.42;;;1.23;;
81374;SDS011;70828;51.158;4.998;2023-07-20T08:50:49;2.50;;;1.30;;
81374;SDS011;70828;51.158;4.998;2023-07-20T08:53:17;1.80;;;1.67;;
81374;SDS011;70828;51.158;4.998;2023-07-20T08:55:44;2.45;;;1.33;;
81374;SDS011;70828;51.158;4.998;2023-07-20T08:58:13;1.70;;;1.42;;
81374;SDS011;70828;51.158;4.998;2023-07-20T09:00:40;1.52;;;1.38;;
81374;SDS011;70828;51.158;4.998;2023-07-20T09:03:07;5.55;;;1.55;;
81374;SDS011;70828;51.158;4.998;2023-07-20T09:05:34;1.95;;;1.63;;
81374;SDS011;70828;51.158;4.998;2023-07-20T09:08:01;1.75;;;1.63;;
81374;SDS011;70828;51.158;4.998;2023-07-20T09:10:29;2.58;;;1.70;;
81374;SDS011;70828;51.158;4.998;2023-07-20T09:12:55;3.25;;;1.52;;
81374;SDS011;70828;51.158;4.998;2023-07-20T09:15:23;2.05;;;1.20;;
81374;SDS011;70828;51.158;4.998;2023-07-20T09:17:50;1.20;;;1.00;;
81374;SDS011;70828;51.158;4.998;2023-07-20T09:20:19;1.30;;;0.95;;
81374;SDS011;70828;51.158;4.998;2023-07-20T09:22:46;3.80;;;1.23;;
81374;SDS011;70828;51.158;4.998;2023-07-20T09:25:13;0.82;;;0.82;;
81374;SDS011;70828;51.158;4.998;2023-07-20T09:27:40;1.50;;;1.20;;
81374;SDS011;70828;51.158;4.998;2023-07-20T09:30:11;1.25;;;1.05;;
81374;SDS011;70828;51.158;4.998;2023-07-20T09:32:41;2.10;;;1.33;;
81374;SDS011;70828;51.158;4.998;2023-07-20T09:35:14;1.38;;;1.17;;
81374;SDS011;70828;51.158;4.998;2023-07-20T09:37:54;1.23;;;1.00;;
81374;SDS011;70828;51.158;4.998;2023-07-20T09:40:24;1.45;;;1.17;;
81374;SDS011;70828;51.158;4.998;2023-07-20T09:42:51;1.08;;;0.98;;
81374;SDS011;70828;51.158;4.998;2023-07-20T09:45:18;1.42;;;1.30;;
81374;SDS011;70828;51.158;4.998;2023-07-20T09:47:47;3.70;;;1.30;;
81374;SDS011;70828;51.158;4.998;2023-07-20T09:50:13;2.55;;;1.27;;
81374;SDS011;70828;51.158;4.998;2023-07-20T09:52:40;1.20;;;0.90;;
81374;SDS011;70828;51.158;4.998;2023-07-20T09:55:09;2.20;;;1.13;;
81374;SDS011;70828;51.158;4.998;2023-07-20T09:57:37;1.50;;;0.98;;
81374;SDS011;70828;51.158;4.998;2023-07-20T10:00:04;1.10;;;0.98;;
81374;SDS011;70828;51.158;4.998;2023-07-20T10:02:39;2.35;;;1.05;;
81374;SDS011;70828;51.158;4.998;2023-07-20T10:05:10;4.40;;;1.90;;
81374;SDS011;70828;51.158;4.998;2023-07-20T10:07:40;2.92;;;1.40;;
81374;SDS011;70828;51.158;4.998;2023-07-20T10:10:09;1.42;;;1.13;;
81374;SDS011;70828;51.158;4.998;2023-07-20T10:12:36;1.10;;;1.00;;
81374;SDS011;70828;51.158;4.998;2023-07-20T10:15:07;1.35;;;1.00;;
81374;SDS011;70828;51.158;4.998;2023-07-20T10:17:39;1.38;;;1.08;;
81374;SDS011;70828;51.158;4.998;2023-07-20T10:20:11;1.40;;;1.10;;
81374;SDS011;70828;51.158;4.998;2023-07-20T10:22:38;1.92;;;1.23;;
81374;SDS011;70828;51.158;4.998;2023-07-20T10:25:05;1.58;;;1.15;;
81374;SDS011;70828;51.158;4.998;2023-07-20T10:27:33;3.05;;;1.10;;
81374;SDS011;70828;51.158;4.998;2023-07-20T10:30:00;1.63;;;1.52;;
81374;SDS011;70828;51.158;4.998;2023-07-20T10:32:27;3.38;;;1.83;;
81374;SDS011;70828;51.158;4.998;2023-07-20T10:34:55;1.83;;;1.50;;
81374;SDS011;70828;51.158;4.998;2023-07-20T10:40:28;2.20;;;1.70;;
81374;SDS011;70828;51.158;4.998;2023-07-20T10:42:57;2.10;;;1.90;;
81374;SDS011;70828;51.158;4.998;2023-07-20T10:45:35;4.28;;;1.80;;
81374;SDS011;70828;51.158;4.998;2023-07-20T10:48:18;2.22;;;1.73;;
81374;SDS011;70828;51.158;4.998;2023-07-20T10:50:46;4.45;;;3.03;;
81374;SDS011;70828;51.158;4.998;2023-07-20T10:53:36;3.22;;;2.28;;
81374;SDS011;70828;51.158;4.998;2023-07-20T10:56:06;2.53;;;2.08;;
81374;SDS011;70828;51.158;4.998;2023-07-20T10:58:34;3.15;;;1.70;;
81374;SDS011;70828;51.158;4.998;2023-07-20T11:01:00;2.33;;;2.10;;
81374;SDS011;70828;51.158;4.998;2023-07-20T11:03:28;2.58;;;2.03;;
81374;SDS011;70828;51.158;4.998;2023-07-20T11:05:58;2.42;;;2.10;;
81374;SDS011;70828;51.158;4.998;2023-07-20T11:08:39;2.97;;;2.40;;
81374;SDS011;70828;51.158;4.998;2023-07-20T11:11:22;2.42;;;1.80;;
81374;SDS011;70828;51.158;4.998;2023-07-20T11:13:53;2.25;;;1.80;;
81374;SDS011;70828;51.158;4.998;2023-07-20T11:16:20;2.50;;;2.10;;
81374;SDS011;70828;51.158;4.998;2023-07-20T11:18:59;2.20;;;2.00;;
81374;SDS011;70828;51.158;4.998;2023-07-20T11:21:25;2.58;;;1.85;;
81374;SDS011;70828;51.158;4.998;2023-07-20T11:23:54;1.88;;;1.55;;
81374;SDS011;70828;51.158;4.998;2023-07-20T11:26:21;1.45;;;1.35;;
81374;SDS011;70828;51.158;4.998;2023-07-20T11:28:48;2.45;;;1.48;;
81374;SDS011;70828;51.158;4.998;2023-07-20T11:31:16;2.28;;;1.58;;
81374;SDS011;70828;51.158;4.998;2023-07-20T11:33:43;3.75;;;1.08;;
81374;SDS011;70828;51.158;4.998;2023-07-20T11:36:10;1.58;;;1.33;;
81374;SDS011;70828;51.158;4.998;2023-07-20T11:38:36;2.65;;;1.10;;
81374;SDS011;70828;51.158;4.998;2023-07-20T11:41:04;1.95;;;1.02;;
81374;SDS011;70828;51.158;4.998;2023-07-20T11:43:31;3.53;;;1.20;;
81374;SDS011;70828;51.158;4.998;2023-07-20T11:45:57;2.22;;;1.40;;
81374;SDS011;70828;51.158;4.998;2023-07-20T11:48:24;1.05;;;0.93;;
81374;SDS011;70828;51.158;4.998;2023-07-20T11:50:51;3.25;;;1.00;;
81374;SDS011;70828;51.158;4.998;2023-07-20T11:53:17;1.23;;;1.10;;
81374;SDS011;70828;51.158;4.998;2023-07-20T11:55:45;2.03;;;1.10;;
81374;SDS011;70828;51.158;4.998;2023-07-20T11:58:13;1.17;;;1.08;;
81374;SDS011;70828;51.158;4.998;2023-07-20T12:00:41;1.67;;;1.20;;
81374;SDS011;70828;51.158;4.998;2023-07-20T12:03:10;1.00;;;0.90;;
81374;SDS011;70828;51.158;4.998;2023-07-20T12:05:37;3.00;;;1.10;;
81374;SDS011;70828;51.158;4.998;2023-07-20T12:08:04;1.92;;;1.33;;
81374;SDS011;70828;51.158;4.998;2023-07-20T12:10:31;1.50;;;0.93;;
81374;SDS011;70828;51.158;4.998;2023-07-20T12:13:00;1.20;;;1.08;;
81374;SDS011;70828;51.158;4.998;2023-07-20T12:15:29;1.98;;;1.35;;
81374;SDS011;70828;51.158;4.998;2023-07-20T12:17:57;1.75;;;1.38;;
81374;SDS011;70828;51.158;4.998;2023-07-20T12:20:25;2.58;;;1.40;;
81374;SDS011;70828;51.158;4.998;2023-07-20T12:22:55;2.20;;;1.67;;
81374;SDS011;70828;51.158;4.998;2023-07-20T12:25:22;3.00;;;1.30;;
81374;SDS011;70828;51.158;4.998;2023-07-20T12:27:49;3.63;;;1.23;;
81374;SDS011;70828;51.158;4.998;2023-07-20T12:30:16;2.95;;;1.77;;
81374;SDS011;70828;51.158;4.998;2023-07-20T12:32:44;2.30;;;1.40;;
81374;SDS011;70828;51.158;4.998;2023-07-20T12:35:11;1.63;;;1.30;;
81374;SDS011;70828;51.158;4.998;2023-07-20T12:37:39;2.33;;;1.08;;
81374;SDS011;70828;51.158;4.998;2023-07-20T12:40:06;1.80;;;1.27;;
81374;SDS011;70828;51.158;4.998;2023-07-20T12:42:36;1.27;;;1.17;;
81374;SDS011;70828;51.158;4.998;2023-07-20T12:45:04;1.48;;;1.13;;
81374;SDS011;70828;51.158;4.998;2023-07-20T12:47:32;2.08;;;1.17;;
81374;SDS011;70828;51.158;4.998;2023-07-20T12:49:59;1.50;;;1.10;;
81374;SDS011;70828;51.158;4.998;2023-07-20T12:52:26;1.80;;;1.42;;
81374;SDS011;70828;51.158;4.998;2023-07-20T12:54:53;4.78;;;1.45;;
81374;SDS011;70828;51.158;4.998;2023-07-20T12:57:19;2.80;;;1.58;;
81374;SDS011;70828;51.158;4.998;2023-07-20T12:59:46;2.25;;;1.50;;
81374;SDS011;70828;51.158;4.998;2023-07-20T13:02:12;8.45;;;1.75;;
81374;SDS011;70828;51.158;4.998;2023-07-20T13:04:39;1.65;;;1.20;;
81374;SDS011;70828;51.158;4.998;2023-07-20T13:07:09;3.97;;;1.70;;
81374;SDS011;70828;51.158;4.998;2023-07-20T13:09:36;2.30;;;1.35;;
81374;SDS011;70828;51.158;4.998;2023-07-20T13:12:03;1.45;;;1.02;;
81374;SDS011;70828;51.158;4.998;2023-07-20T13:14:30;2.30;;;1.40;;
81374;SDS011;70828;51.158;4.998;2023-07-20T13:16:57;1.90;;;1.10;;
81374;SDS011;70828;51.158;4.998;2023-07-20T13:19:23;2.05;;;1.50;;
81374;SDS011;70828;51.158;4.998;2023-07-20T13:21:50;2.05;;;1.58;;
81374;SDS011;70828;51.158;4.998;2023-07-20T13:24:18;2.28;;;1.40;;
81374;SDS011;70828;51.158;4.998;2023-07-20T13:26:45;1.50;;;1.40;;
81374;SDS011;70828;51.158;4.998;2023-07-20T13:29:11;2.03;;;1.10;;
81374;SDS011;70828;51.158;4.998;2023-07-20T13:31:38;5.10;;;1.33;;
81374;SDS011;70828;51.158;4.998;2023-07-20T13:34:04;2.15;;;1.58;;
81374;SDS011;70828;51.158;4.998;2023-07-20T13:36:31;2.22;;;1.52;;
81374;SDS011;70828;51.158;4.998;2023-07-20T13:38:58;3.63;;;1.40;;
81374;SDS011;70828;51.158;4.998;2023-07-20T13:41:26;2.00;;;1.40;;
81374;SDS011;70828;51.158;4.998;2023-07-20T13:43:52;2.10;;;1.35;;
81374;SDS011;70828;51.158;4.998;2023-07-20T13:46:19;2.25;;;1.20;;
81374;SDS011;70828;51.158;4.998;2023-07-20T13:48:45;1.75;;;1.58;;
81374;SDS011;70828;51.158;4.998;2023-07-20T13:51:12;1.45;;;1.33;;
81374;SDS011;70828;51.158;4.998;2023-07-20T13:53:38;1.63;;;1.50;;
81374;SDS011;70828;51.158;4.998;2023-07-20T13:56:05;1.95;;;1.20;;
81374;SDS011;70828;51.158;4.998;2023-07-20T13:58:33;1.50;;;1.40;;
81374;SDS011;70828;51.158;4.998;2023-07-20T14:01:00;2.83;;;1.25;;
81374;SDS011;70828;51.158;4.998;2023-07-20T14:03:27;2.00;;;1.23;;
81374;SDS011;70828;51.158;4.998;2023-07-20T14:05:53;3.67;;;1.40;;
81374;SDS011;70828;51.158;4.998;2023-07-20T14:08:20;1.30;;;1.20;;
81374;SDS011;70828;51.158;4.998;2023-07-20T14:10:47;1.85;;;1.20;;
81374;SDS011;70828;51.158;4.998;2023-07-20T14:13:13;3.00;;;2.05;;
81374;SDS011;70828;51.158;4.998;2023-07-20T14:15:41;3.15;;;1.23;;
81374;SDS011;70828;51.158;4.998;2023-07-20T14:18:08;2.65;;;1.13;;
81374;SDS011;70828;51.158;4.998;2023-07-20T14:20:35;1.05;;;1.02;;
81374;SDS011;70828;51.158;4.998;2023-07-20T14:23:01;1.40;;;1.10;;
81374;SDS011;70828;51.158;4.998;2023-07-20T14:25:28;1.38;;;1.10;;
81374;SDS011;70828;51.158;4.998;2023-07-20T14:27:54;1.35;;;0.80;;
81374;SDS011;70828;51.158;4.998;2023-07-20T14:30:21;1.02;;;0.85;;
81374;SDS011;70828;51.158;4.998;2023-07-20T14:32:49;2.67;;;0.85;;
81374;SDS011;70828;51.158;4.998;2023-07-20T14:35:16;2.28;;;0.80;;
81374;SDS011;70828;51.158;4.998;2023-07-20T14:37:42;1.85;;;0.80;;
81374;SDS011;70828;51.158;4.998;2023-07-20T14:40:12;1.02;;;0.70;;
81374;SDS011;70828;51.158;4.998;2023-07-20T14:42:38;2.47;;;0.93;;
81374;SDS011;70828;51.158;4.998;2023-07-20T14:45:05;1.23;;;0.95;;
81374;SDS011;70828;51.158;4.998;2023-07-20T14:47:33;3.53;;;0.82;;
81374;SDS011;70828;51.158;4.998;2023-07-20T14:50:01;3.22;;;1.48;;
81374;SDS011;70828;51.158;4.998;2023-07-20T14:52:28;1.55;;;1.05;;
81374;SDS011;70828;51.158;4.998;2023-07-20T14:54:55;1.10;;;0.80;;